createdAt,value
2022-08-10T00:00:53.533Z,4.00
2022-08-10T00:03:20.658Z,3.20
2022-08-10T00:05:52.722Z,3.05
2022-08-10T00:08:24.140Z,3.28
2022-08-10T00:10:56.480Z,3.17
2022-08-10T00:13:25.446Z,3.20
2022-08-10T00:15:54.889Z,3.10
2022-08-10T00:18:34.431Z,3.25
2022-08-10T00:21:05.643Z,3.90
2022-08-10T00:23:33.496Z,3.28
2022-08-10T00:28:27.933Z,3.53
2022-08-10T00:30:56.060Z,3.95
2022-08-10T00:33:23.234Z,3.38
2022-08-10T00:35:50.765Z,3.22
2022-08-10T00:38:18.052Z,3.20
2022-08-10T00:40:46.165Z,3.28
2022-08-10T00:43:13.342Z,3.20
2022-08-10T00:45:40.476Z,2.72
2022-08-10T00:48:07.652Z,3.00
2022-08-10T00:50:34.880Z,3.35
2022-08-10T00:53:02.360Z,2.90
2022-08-10T00:55:29.963Z,2.55
2022-08-10T00:57:57.763Z,2.83
2022-08-10T01:00:25.129Z,2.90
2022-08-10T01:02:53.308Z,3.30
2022-08-10T01:05:21.941Z,3.08
2022-08-10T01:08:15.182Z,3.13
2022-08-10T01:10:55.975Z,3.30
2022-08-10T01:13:29.006Z,3.28
2022-08-10T01:16:23.263Z,3.25
2022-08-10T01:19:15.209Z,3.47
2022-08-10T01:21:54.250Z,3.63
2022-08-10T01:24:39.169Z,3.65
2022-08-10T01:27:43.645Z,3.50
2022-08-10T01:30:18.920Z,3.20
2022-08-10T01:33:00.254Z,3.33
2022-08-10T01:35:45.273Z,3.55
2022-08-10T01:38:20.471Z,3.88
2022-08-10T01:40:54.969Z,3.28
2022-08-10T01:43:25.250Z,3.25
2022-08-10T01:45:55.903Z,3.80
2022-08-10T01:48:31.684Z,3.70
2022-08-10T01:51:11.147Z,3.75
2022-08-10T01:53:54.394Z,4.15
2022-08-10T01:56:24.394Z,4.07
2022-08-10T01:58:56.884Z,4.30
2022-08-10T02:01:28.439Z,3.50
2022-08-10T02:04:05.166Z,3.55
2022-08-10T02:06:45.190Z,4.35
2022-08-10T02:12:08.585Z,3.60
2022-08-10T02:14:51.007Z,3.75
2022-08-10T02:17:57.511Z,3.38
2022-08-10T02:20:20.474Z,4.07
2022-08-10T02:22:55.085Z,3.90
2022-08-10T02:25:41.537Z,3.55
2022-08-10T02:28:29.992Z,3.45
2022-08-10T02:31:23.078Z,3.88
2022-08-10T02:33:57.268Z,3.95
2022-08-10T02:36:29.561Z,3.65
2022-08-10T02:39:01.386Z,3.70
2022-08-10T02:45:01.644Z,3.65
2022-08-10T02:45:17.812Z,3.33
2022-08-10T02:47:30.247Z,3.40
2022-08-10T02:50:31.813Z,3.70
2022-08-10T02:53:04.198Z,3.92
2022-08-10T02:55:49.548Z,3.70
2022-08-10T02:58:26.332Z,4.05
2022-08-10T03:00:56.567Z,3.80
2022-08-10T03:03:29.615Z,4.18
2022-08-10T03:06:03.640Z,4.90
2022-08-10T03:08:34.616Z,4.25
2022-08-10T03:11:04.922Z,4.07
2022-08-10T03:13:33.756Z,4.50
2022-08-10T03:16:01.652Z,4.53
2022-08-10T03:23:26.947Z,4.47
2022-08-10T03:25:57.115Z,4.50
2022-08-10T03:28:27.682Z,4.60
2022-08-10T03:30:58.117Z,4.10
2022-08-10T03:33:29.043Z,4.45
2022-08-10T03:36:43.620Z,4.75
2022-08-10T03:38:46.204Z,4.03
2022-08-10T03:41:15.902Z,4.38
2022-08-10T03:43:48.206Z,4.15
2022-08-10T03:46:19.055Z,4.78
2022-08-10T03:48:50.233Z,4.50
2022-08-10T03:51:22.599Z,4.25
2022-08-10T03:54:03.818Z,4.20
2022-08-10T03:56:36.519Z,4.47
2022-08-10T03:59:04.675Z,4.15
2022-08-10T04:02:52.195Z,4.32
2022-08-10T04:04:24.080Z,4.60
2022-08-10T04:06:55.119Z,4.22
2022-08-10T04:09:29.690Z,4.35
2022-08-10T04:12:15.454Z,4.55
2022-08-10T04:14:50.713Z,4.13
2022-08-10T04:18:02.810Z,4.35
2022-08-10T04:20:29.968Z,4.40
2022-08-10T04:23:07.876Z,3.83
2022-08-10T04:25:36.633Z,4.03
2022-08-10T04:28:04.206Z,4.35
2022-08-10T04:30:32.450Z,5.22
2022-08-10T04:33:03.343Z,4.55
2022-08-10T04:35:32.479Z,4.70
2022-08-10T04:38:02.174Z,4.80
2022-08-10T04:40:31.025Z,4.50
2022-08-10T04:43:04.430Z,4.55
2022-08-10T04:45:47.547Z,4.20
2022-08-10T04:48:41.201Z,4.80
2022-08-10T04:51:20.447Z,5.25
2022-08-10T04:54:03.747Z,5.25
2022-08-10T04:56:38.580Z,4.65
2022-08-10T04:59:07.914Z,4.65
2022-08-10T05:02:21.590Z,5.18
2022-08-10T05:04:35.095Z,4.38
2022-08-10T05:07:10.960Z,4.78
2022-08-10T05:10:01.828Z,5.30
2022-08-10T05:12:27.733Z,5.05
2022-08-10T05:14:55.524Z,5.07
2022-08-10T05:17:23.778Z,4.78
2022-08-10T05:20:04.089Z,4.93
2022-08-10T05:22:41.789Z,4.30
2022-08-10T05:25:12.404Z,4.57
2022-08-10T05:27:41.196Z,5.65
2022-08-10T05:30:11.161Z,5.63
2022-08-10T05:32:56.960Z,5.30
2022-08-10T05:35:26.917Z,4.97
2022-08-10T05:38:12.330Z,4.75
2022-08-10T05:49:13.923Z,5.00
2022-08-10T05:51:58.553Z,5.22
2022-08-10T06:08:44.300Z,5.60
2022-08-10T06:12:26.639Z,4.90
2022-08-10T06:14:22.676Z,5.18
2022-08-10T06:16:57.873Z,5.50
2022-08-10T06:19:26.001Z,5.28
2022-08-10T06:22:00.730Z,5.10
2022-08-10T06:24:46.469Z,5.75
2022-08-10T06:27:34.278Z,4.70
2022-08-10T06:32:30.931Z,4.53
2022-08-10T06:35:00.528Z,4.32
2022-08-10T06:37:29.425Z,4.82
2022-08-10T06:39:56.770Z,4.78
2022-08-10T06:42:34.255Z,5.18
2022-08-10T06:45:15.508Z,4.60
2022-08-10T06:47:59.612Z,3.83
2022-08-10T06:50:44.516Z,4.68
2022-08-10T06:53:21.923Z,5.93
2022-08-10T06:56:02.513Z,4.95
2022-08-10T06:58:36.838Z,6.18
2022-08-10T07:01:09.357Z,5.20
2022-08-10T07:03:44.836Z,5.03
2022-08-10T07:06:14.000Z,4.90
2022-08-10T07:08:42.229Z,4.50
2022-08-10T07:11:12.143Z,4.35
2022-08-10T07:14:16.083Z,4.35
2022-08-10T07:16:31.104Z,4.68
2022-08-10T07:19:00.407Z,4.60
2022-08-10T07:21:29.045Z,4.38
2022-08-10T07:24:00.823Z,4.32
2022-08-10T07:26:30.750Z,4.57
2022-08-10T07:28:59.287Z,4.63
2022-08-10T07:31:36.137Z,4.25
2022-08-10T07:34:28.911Z,4.32
2022-08-10T07:37:03.648Z,5.20
2022-08-10T07:39:58.265Z,4.20
2022-08-10T07:42:23.109Z,4.88
2022-08-10T07:44:51.424Z,5.03
2022-08-10T07:47:52.312Z,5.10
2022-08-10T07:50:12.872Z,4.18
2022-08-10T07:52:40.997Z,6.35
2022-08-10T07:55:14.435Z,4.60
2022-08-10T07:57:44.443Z,5.28
2022-08-10T08:00:12.647Z,4.38
2022-08-10T08:02:45.026Z,4.07
2022-08-10T08:05:57.462Z,5.13
2022-08-10T08:08:03.857Z,4.25
2022-08-10T08:10:31.727Z,4.50
2022-08-10T08:13:01.318Z,3.75
2022-08-10T08:16:16.720Z,4.22
2022-08-10T08:18:23.008Z,4.43
2022-08-10T08:20:54.394Z,7.40
2022-08-10T08:24:09.124Z,4.43
2022-08-10T08:26:11.748Z,3.33
2022-08-10T08:28:45.722Z,3.17
2022-08-10T08:31:15.938Z,2.88
2022-08-10T08:33:45.502Z,2.90
2022-08-10T08:36:15.924Z,2.50
2022-08-10T08:38:44.026Z,2.42
2022-08-10T08:41:52.877Z,2.70
2022-08-10T08:44:38.869Z,2.90
2022-08-10T08:48:03.279Z,3.20
2022-08-10T08:50:45.569Z,2.60
2022-08-10T08:53:21.842Z,2.72
2022-08-10T08:56:21.948Z,2.72
2022-08-10T08:59:08.748Z,3.95
2022-08-10T09:01:49.969Z,4.65
2022-08-10T09:04:55.709Z,2.85
2022-08-10T09:08:08.198Z,2.33
2022-08-10T09:10:52.735Z,2.75
2022-08-10T09:13:27.381Z,3.25
2022-08-10T09:16:13.306Z,2.90
2022-08-10T09:18:56.024Z,2.60
2022-08-10T09:21:43.165Z,2.97
2022-08-10T09:24:46.298Z,3.05
2022-08-10T09:27:24.298Z,2.50
2022-08-10T09:29:57.224Z,2.53
2022-08-10T09:36:15.122Z,2.47
2022-08-10T09:36:27.000Z,2.45
2022-08-10T09:38:37.989Z,2.28
2022-08-10T09:41:16.286Z,3.00
2022-08-10T09:43:56.849Z,2.92
2022-08-10T09:46:59.189Z,2.60
2022-08-10T09:50:02.244Z,3.22
2022-08-10T09:52:43.547Z,2.60
2022-08-10T09:56:19.250Z,2.92
2022-08-10T09:59:29.323Z,2.10
2022-08-10T10:02:18.164Z,2.25
2022-08-10T10:04:54.443Z,2.55
2022-08-10T10:07:29.229Z,2.35
2022-08-10T10:10:07.883Z,2.83
2022-08-10T10:12:55.527Z,2.70
2022-08-10T10:15:50.836Z,3.10
2022-08-10T10:18:34.578Z,3.45
2022-08-10T10:21:07.687Z,2.75
2022-08-10T10:24:21.095Z,2.80
2022-08-10T10:26:52.961Z,3.45
2022-08-10T10:29:57.394Z,2.88
2022-08-10T10:32:47.552Z,3.20
2022-08-10T10:35:23.656Z,3.00
2022-08-10T10:38:01.064Z,3.15
2022-08-10T10:41:03.195Z,3.20
2022-08-10T10:43:47.281Z,3.13
2022-08-10T10:46:38.971Z,2.70
2022-08-10T10:49:20.789Z,2.90
2022-08-10T10:52:02.232Z,2.50
2022-08-10T10:54:39.293Z,3.47
2022-08-10T10:57:18.491Z,2.53
2022-08-10T11:00:05.695Z,2.60
2022-08-10T11:02:55.705Z,2.85
2022-08-10T11:06:00.265Z,3.05
2022-08-10T11:08:34.421Z,3.05
2022-08-10T11:11:25.327Z,2.38
2022-08-10T11:14:25.577Z,2.70
2022-08-10T11:17:18.807Z,2.85
2022-08-10T11:20:04.345Z,2.80
2022-08-10T11:22:48.291Z,2.47
2022-08-10T11:25:27.586Z,2.63
2022-08-10T11:28:20.505Z,3.00
2022-08-10T11:31:05.240Z,2.58
2022-08-10T11:34:47.318Z,2.50
2022-08-10T11:37:22.151Z,2.83
2022-08-10T11:40:15.454Z,3.08
2022-08-10T11:42:51.235Z,3.08
2022-08-10T11:45:25.459Z,2.40
2022-08-10T11:48:52.807Z,2.40
2022-08-10T11:53:57.081Z,2.72
2022-08-10T11:56:31.700Z,2.88
2022-08-10T11:59:17.680Z,2.90
2022-08-10T12:01:47.604Z,2.55
2022-08-10T12:04:16.560Z,2.22
2022-08-10T12:06:55.531Z,2.70
2022-08-10T12:10:09.836Z,2.90
2022-08-10T12:12:17.400Z,3.55
2022-08-10T12:15:00.209Z,2.70
2022-08-10T12:17:33.991Z,2.72
2022-08-10T12:20:17.620Z,2.50
2022-08-10T12:23:22.336Z,2.38
2022-08-10T12:26:02.391Z,2.30
2022-08-10T12:29:08.868Z,3.15
2022-08-10T12:31:54.301Z,2.55
2022-08-10T12:34:34.591Z,2.33
2022-08-10T12:37:35.489Z,3.00
2022-08-10T12:40:38.194Z,2.85
2022-08-10T12:44:06.788Z,3.08
2022-08-10T12:46:20.387Z,2.50
2022-08-10T12:48:57.319Z,2.83
2022-08-10T12:51:30.434Z,3.03
2022-08-10T12:54:32.743Z,2.75
2022-08-10T12:57:02.258Z,2.67
2022-08-10T12:59:31.682Z,2.63
2022-08-10T13:02:10.386Z,2.95
2022-08-10T13:04:42.385Z,2.60
2022-08-10T13:07:10.479Z,3.22
2022-08-10T13:10:18.284Z,3.00
2022-08-10T13:12:52.171Z,2.78
2022-08-10T13:15:50.113Z,2.70
2022-08-10T13:18:18.401Z,3.78
2022-08-10T13:20:51.598Z,4.80
2022-08-10T13:23:30.015Z,2.90
2022-08-10T13:26:01.000Z,3.08
2022-08-10T13:28:39.932Z,2.50
2022-08-10T13:31:16.380Z,2.90
2022-08-10T13:34:38.906Z,2.92
2022-08-10T13:36:40.229Z,2.85
2022-08-10T13:39:08.568Z,3.33
2022-08-10T13:41:39.870Z,2.78
2022-08-10T13:44:09.830Z,3.00
2022-08-10T13:46:40.466Z,3.13
2022-08-10T13:49:11.083Z,3.00
2022-08-10T13:51:53.973Z,2.97
2022-08-10T13:54:36.007Z,3.13
2022-08-10T13:57:05.038Z,2.88
2022-08-10T14:00:34.288Z,2.85
2022-08-10T14:02:25.664Z,3.17
2022-08-10T14:04:55.976Z,3.40
2022-08-10T14:07:24.117Z,3.08
2022-08-10T14:09:53.723Z,2.92
2022-08-10T14:12:32.191Z,3.08
2022-08-10T14:15:04.897Z,3.10
2022-08-10T14:17:34.970Z,2.88
2022-08-10T14:20:05.581Z,2.70
2022-08-10T14:22:37.731Z,2.78
2022-08-10T14:25:13.312Z,3.00
2022-08-10T14:28:03.700Z,2.47
2022-08-10T14:30:33.409Z,3.35
2022-08-10T14:33:04.520Z,2.35
2022-08-10T14:36:19.384Z,2.95
2022-08-10T14:38:28.880Z,2.28
2022-08-10T14:40:59.624Z,3.20
2022-08-10T14:43:33.675Z,2.30
2022-08-10T14:46:18.078Z,2.72
2022-08-10T14:48:48.346Z,2.45
2022-08-10T14:51:19.445Z,2.47
2022-08-10T14:53:54.140Z,2.80
2022-08-10T14:56:32.465Z,2.50
2022-08-10T14:59:06.893Z,2.65
2022-08-10T15:02:37.752Z,2.60
2022-08-10T15:04:30.404Z,2.90
2022-08-10T15:07:20.607Z,3.22
2022-08-10T15:10:00.496Z,2.85
2022-08-10T15:29:29.196Z,2.37
2022-08-10T15:32:25.463Z,2.13
2022-08-10T15:35:13.510Z,2.80
2022-08-10T15:37:45.493Z,2.53
2022-08-10T15:40:25.691Z,2.70
2022-08-10T15:43:20.279Z,2.70
2022-08-10T15:46:16.079Z,2.22
2022-08-10T15:48:48.508Z,2.40
2022-08-10T15:51:28.471Z,2.30
2022-08-10T15:54:13.856Z,2.53
2022-08-10T15:56:49.362Z,2.70
2022-08-10T15:59:27.034Z,3.15
2022-08-10T16:02:13.066Z,2.33
2022-08-10T16:04:54.134Z,2.70
2022-08-10T16:10:27.354Z,2.38
2022-08-10T16:13:59.321Z,2.50
2022-08-10T16:15:58.020Z,2.67
2022-08-10T16:18:28.318Z,2.70
2022-08-10T16:21:00.921Z,2.53
2022-08-10T16:23:32.625Z,2.78
2022-08-10T16:26:14.508Z,2.60
2022-08-10T16:28:48.150Z,2.55
2022-08-10T16:31:27.075Z,2.50
2022-08-10T16:33:58.838Z,2.30
2022-08-10T16:36:37.253Z,2.50
2022-08-10T16:39:05.675Z,3.17
2022-08-10T16:42:04.081Z,2.88
2022-08-10T16:44:28.752Z,2.60
2022-08-10T16:46:58.105Z,2.53
2022-08-10T16:49:27.461Z,3.00
2022-08-10T16:51:56.449Z,2.70
2022-08-10T16:54:27.523Z,2.97
2022-08-10T16:57:02.118Z,3.17
2022-08-10T16:59:40.549Z,2.78
2022-08-10T17:02:14.178Z,2.30
2022-08-10T17:04:44.027Z,2.20
2022-08-10T17:07:16.079Z,2.17
2022-08-10T17:09:50.752Z,2.35
2022-08-10T17:12:23.584Z,2.47
2022-08-10T17:15:09.833Z,2.47
2022-08-10T17:17:44.359Z,2.45
2022-08-10T17:20:31.140Z,2.85
2022-08-10T17:23:06.804Z,2.67
2022-08-10T17:25:45.935Z,2.50
2022-08-10T17:28:33.055Z,2.58
2022-08-10T17:31:38.099Z,2.28
2022-08-10T17:34:01.681Z,2.88
2022-08-10T17:36:34.520Z,2.42
2022-08-10T17:39:03.656Z,2.15
2022-08-10T17:41:33.964Z,2.65
2022-08-10T17:44:05.124Z,2.60
2022-08-10T17:46:38.578Z,2.08
2022-08-10T17:49:08.950Z,2.40
2022-08-10T17:51:39.563Z,2.47
2022-08-10T17:54:23.764Z,2.10
2022-08-10T17:56:52.350Z,2.42
2022-08-10T17:59:24.864Z,2.10
2022-08-10T18:02:02.239Z,2.25
2022-08-10T18:04:41.401Z,2.10
2022-08-10T18:07:11.681Z,2.50
2022-08-10T18:09:51.665Z,2.67
2022-08-10T18:12:30.887Z,2.13
2022-08-10T18:15:08.421Z,2.40
2022-08-10T18:17:40.819Z,2.60
2022-08-10T18:20:10.008Z,2.90
2022-08-10T18:22:44.762Z,2.63
2022-08-10T18:25:26.258Z,3.17
2022-08-10T18:28:03.639Z,2.70
2022-08-10T18:30:45.099Z,2.70
2022-08-10T18:33:14.347Z,2.50
2022-08-10T18:35:44.751Z,2.47
2022-08-10T18:38:13.464Z,2.92
2022-08-10T18:40:45.084Z,3.28
2022-08-10T18:44:06.820Z,3.03
2022-08-10T18:46:09.215Z,2.78
2022-08-10T18:48:42.094Z,3.38
2022-08-10T18:51:12.319Z,2.55
2022-08-10T18:53:50.742Z,3.65
2022-08-10T18:56:20.737Z,2.58
2022-08-10T18:58:50.899Z,2.85
2022-08-10T19:01:48.579Z,2.85
2022-08-10T19:04:15.685Z,2.85
2022-08-10T19:07:01.477Z,3.17
2022-08-10T19:09:46.737Z,2.85
2022-08-10T19:12:31.711Z,3.13
2022-08-10T19:15:23.011Z,3.20
2022-08-10T19:18:13.816Z,3.30
2022-08-10T19:20:53.867Z,3.28
2022-08-10T19:23:34.158Z,3.17
2022-08-10T19:26:41.581Z,4.18
2022-08-10T19:30:07.985Z,3.20
2022-08-10T19:32:50.891Z,3.42
2022-08-10T19:36:04.516Z,3.15
2022-08-10T19:38:52.535Z,3.55
2022-08-10T19:41:44.783Z,2.80
2022-08-10T19:44:35.874Z,2.75
2022-08-10T19:47:11.928Z,2.53
2022-08-10T19:49:55.309Z,3.55
2022-08-10T19:52:40.660Z,2.33
2022-08-10T19:55:50.541Z,2.20
2022-08-10T19:58:27.941Z,2.70
2022-08-10T20:01:06.920Z,2.65
2022-08-10T20:03:49.478Z,2.50
2022-08-10T20:06:20.432Z,2.75
2022-08-10T20:08:54.498Z,2.47
2022-08-10T20:11:45.883Z,2.70
2022-08-10T20:14:39.175Z,2.67
2022-08-10T20:17:16.143Z,2.22
2022-08-10T20:19:56.158Z,2.50
2022-08-10T20:22:30.388Z,2.75
2022-08-10T20:25:18.159Z,2.65
2022-08-10T20:28:00.933Z,2.60
2022-08-10T20:30:34.724Z,2.60
2022-08-10T20:33:23.271Z,3.08
2022-08-10T20:35:58.421Z,2.63
2022-08-10T20:38:34.234Z,2.60
2022-08-10T20:41:49.205Z,2.95
2022-08-10T20:44:39.311Z,2.53
2022-08-10T20:47:42.604Z,2.83
2022-08-10T20:50:40.146Z,3.28
2022-08-10T20:53:15.284Z,3.33
2022-08-10T20:55:54.878Z,3.10
2022-08-10T20:58:49.900Z,2.95
2022-08-10T21:01:23.448Z,3.28
2022-08-10T21:04:13.794Z,2.88
2022-08-10T21:07:05.563Z,3.40
2022-08-10T21:09:51.181Z,3.35
2022-08-10T21:12:57.628Z,4.00
